Terminal Aerodrome Forecast
Issued by NWS

Home | Current Version | Previous Version | Text Only | Print | Product List | Glossary On
Versions: 1 2 3 4 5 6 7 8 9 10 11 12 13 14 15 16 17 18 19 20 21 22 23 24 25 26
000
FTUS41 KPHI 051907 AAA
TAFMIV
TAF AMD
KMIV 051907Z 0519/0618 03008KT P6SM OVC015
      TEMPO 0521/0601 OVC025
     FM060700 03008KT 4SM -RA BR OVC008
     FM061100 03010G18KT 2SM RA BR OVC004
     FM061500 06008KT 4SM -DZ BR OVC008=

USA.gov is the U.S. government's official web portal to all federal, state and local government web resources and services.